Time;durP1;ratioP1;P1;durP2;ratioP2;P2;SDS_P1;SDS_P2;PMS_P1;PMS_P2;Temp;Humidity;BMP_temperature;BMP_pressure;BME280_temperature;BME280_humidity;BME280_pressure;Samples;Min_cycle;Max_cycle;Signal;HPM_P1;HPM_P2
2023/12/31 00:00:41;;;;;;;4.80;2.70;;;9.10;65.80;;;;;;5051944;28;20413;-74
2023/12/31 00:03:06;;;;;;;4.03;2.70;;;9.10;67.30;;;;;;5051831;28;20386;-73
2023/12/31 00:05:33;;;;;;;5.32;2.88;;;9.10;67.00;;;;;;5051867;28;20373;-75
2023/12/31 00:07:59;;;;;;;4.90;3.30;;;9.00;67.40;;;;;;5051683;28;20417;-73
2023/12/31 00:10:25;;;;;;;3.22;2.38;;;9.00;67.70;;;;;;5052272;28;20386;-75
2023/12/31 00:12:51;;;;;;;6.03;3.00;;;9.10;67.10;;;;;;5052432;28;20388;-73
2023/12/31 00:15:16;;;;;;;7.85;2.88;;;9.00;67.20;;;;;;5052495;28;20461;-71
2023/12/31 00:17:42;;;;;;;4.87;2.53;;;9.00;67.90;;;;;;5052662;28;20382;-74
2023/12/31 00:20:08;;;;;;;4.30;3.00;;;9.00;68.50;;;;;;5052152;28;20809;-76
2023/12/31 00:22:33;;;;;;;7.07;3.80;;;9.00;69.10;;;;;;5052733;28;20483;-72
2023/12/31 00:24:59;;;;;;;3.33;2.50;;;8.90;69.80;;;;;;5034181;28;20421;-73
2023/12/31 00:27:24;;;;;;;5.93;3.40;;;9.00;70.20;;;;;;5051983;28;20385;-73
2023/12/31 00:29:50;;;;;;;6.30;3.60;;;9.00;71.00;;;;;;5051721;28;20907;-73
2023/12/31 00:32:16;;;;;;;5.85;3.47;;;9.00;70.60;;;;;;5051919;28;20828;-73
2023/12/31 00:34:42;;;;;;;5.10;2.90;;;9.00;70.60;;;;;;5051840;28;20381;-73
2023/12/31 00:37:08;;;;;;;5.28;2.72;;;9.00;71.40;;;;;;5051517;28;20473;-73
2023/12/31 00:39:33;;;;;;;7.10;3.00;;;9.00;70.80;;;;;;5051475;28;20950;-75
2023/12/31 00:41:59;;;;;;;3.60;2.80;;;8.90;70.70;;;;;;5051534;28;20397;-74
2023/12/31 00:44:24;;;;;;;5.53;3.55;;;8.80;72.00;;;;;;5033850;28;20405;-74
2023/12/31 00:46:53;;;;;;;3.60;2.70;;;8.90;72.20;;;;;;5051536;28;20381;-74
2023/12/31 00:49:18;;;;;;;6.95;3.25;;;8.90;71.90;;;;;;5050174;28;20393;-75
2023/12/31 00:51:44;;;;;;;5.57;3.40;;;8.90;72.40;;;;;;5051341;28;20381;-74
2023/12/31 00:54:10;;;;;;;5.57;3.40;;;8.90;72.90;;;;;;5051357;28;20382;-73
2023/12/31 00:56:35;;;;;;;4.63;3.60;;;9.00;72.40;;;;;;5051274;28;20393;-72
2023/12/31 00:59:04;;;;;;;4.20;3.20;;;9.00;72.00;;;;;;5051280;28;20385;-72
2023/12/31 01:01:29;;;;;;;4.60;3.30;;;9.00;71.60;;;;;;5051046;28;20492;-75
2023/12/31 01:03:55;;;;;;;3.30;2.87;;;9.00;71.80;;;;;;5033915;28;20989;-74
2023/12/31 01:06:21;;;;;;;4.10;3.37;;;9.10;71.10;;;;;;5034191;28;20702;-73
2023/12/31 01:08:46;;;;;;;6.67;3.70;;;9.20;70.20;;;;;;5051386;28;20460;-73
2023/12/31 01:11:12;;;;;;;4.70;3.47;;;9.40;69.50;;;;;;5051001;28;20425;-74
2023/12/31 01:13:38;;;;;;;4.37;3.63;;;9.40;68.90;;;;;;5051242;28;21043;-73
2023/12/31 01:16:04;;;;;;;6.15;3.40;;;9.40;69.40;;;;;;5050934;28;20469;-73
2023/12/31 01:18:30;;;;;;;5.70;3.50;;;9.30;68.20;;;;;;5052033;28;20425;-73
2023/12/31 01:20:56;;;;;;;7.68;4.13;;;9.30;67.10;;;;;;5051871;28;20393;-73
2023/12/31 01:23:21;;;;;;;4.40;3.60;;;9.40;67.70;;;;;;5052466;28;20785;-73
2023/12/31 01:25:47;;;;;;;5.37;3.53;;;9.40;69.10;;;;;;5052371;28;20378;-73
2023/12/31 01:28:12;;;;;;;4.23;3.27;;;9.40;66.70;;;;;;5052538;28;20462;-73
2023/12/31 01:30:38;;;;;;;6.55;3.70;;;9.40;66.80;;;;;;5050291;28;20405;-74
2023/12/31 01:33:04;;;;;;;6.25;3.03;;;9.50;65.90;;;;;;5050479;28;20436;-72
2023/12/31 01:35:29;;;;;;;6.05;3.67;;;9.60;64.80;;;;;;5050411;28;20382;-72
2023/12/31 01:37:55;;;;;;;7.05;3.13;;;9.60;65.50;;;;;;5050594;28;20385;-73
2023/12/31 01:40:20;;;;;;;6.85;3.72;;;9.50;65.70;;;;;;5052010;28;20409;-74
2023/12/31 01:42:46;;;;;;;5.87;3.60;;;9.40;66.30;;;;;;5052202;28;20389;-72
2023/12/31 01:45:11;;;;;;;6.50;3.60;;;9.40;65.50;;;;;;5051178;28;20377;-74
2023/12/31 01:47:38;;;;;;;5.60;3.70;;;9.40;66.00;;;;;;5052097;28;20389;-73
2023/12/31 01:50:05;;;;;;;4.90;3.80;;;9.30;65.80;;;;;;5054298;28;20377;-72
2023/12/31 01:52:33;;;;;;;5.05;3.60;;;9.40;66.50;;;;;;5054755;28;20373;-72
2023/12/31 01:55:04;;;;;;;5.13;3.80;;;9.30;66.00;;;;;;5054409;28;20381;-72
2023/12/31 01:57:31;;;;;;;6.97;4.15;;;9.30;66.90;;;;;;5036311;28;20815;-71
2023/12/31 01:59:58;;;;;;;6.15;4.00;;;9.20;66.70;;;;;;5054424;28;20915;-71
2023/12/31 02:02:24;;;;;;;7.90;4.10;;;9.10;66.30;;;;;;5054848;28;20505;-72
2023/12/31 02:04:51;;;;;;;5.68;3.90;;;9.10;66.80;;;;;;5054546;28;20473;-74
2023/12/31 02:07:17;;;;;;;5.80;3.70;;;9.10;67.50;;;;;;5053979;28;20391;-72
2023/12/31 02:09:42;;;;;;;4.82;3.75;;;9.00;66.40;;;;;;5053605;28;20456;-72
2023/12/31 02:12:09;;;;;;;4.85;3.60;;;8.90;66.50;;;;;;5054151;28;20385;-72
2023/12/31 02:14:35;;;;;;;6.30;3.80;;;8.90;67.70;;;;;;5053891;28;20381;-72
2023/12/31 02:17:00;;;;;;;4.20;3.00;;;8.90;66.70;;;;;;5054311;28;20382;-72
2023/12/31 02:19:26;;;;;;;5.03;3.80;;;9.00;64.50;;;;;;5054176;28;20387;-73
2023/12/31 02:21:51;;;;;;;4.10;3.17;;;9.00;64.10;;;;;;5053239;28;20440;-72
2023/12/31 02:24:19;;;;;;;5.20;3.50;;;9.00;64.20;;;;;;5035539;28;20393;-72
2023/12/31 02:26:45;;;;;;;5.47;3.83;;;9.10;63.60;;;;;;5053472;28;20377;-75
2023/12/31 02:29:10;;;;;;;5.00;3.57;;;9.10;61.60;;;;;;5053646;28;20456;-73
2023/12/31 02:31:36;;;;;;;6.10;3.30;;;9.10;63.80;;;;;;5053104;28;20828;-72
2023/12/31 02:34:02;;;;;;;5.10;3.30;;;9.10;63.50;;;;;;5053305;28;20385;-72
2023/12/31 02:36:27;;;;;;;4.60;3.13;;;9.00;64.00;;;;;;5053251;28;20397;-70
2023/12/31 02:38:53;;;;;;;7.53;3.93;;;9.00;63.00;;;;;;5035614;28;20394;-73
2023/12/31 02:41:18;;;;;;;5.57;3.37;;;9.10;62.00;;;;;;5083804;22;21005;-73
2023/12/31 02:43:44;;;;;;;4.60;3.47;;;9.10;61.70;;;;;;5094550;28;20386;-76
2023/12/31 02:46:10;;;;;;;4.80;3.50;;;9.20;60.20;;;;;;5093472;28;20377;-75
2023/12/31 02:48:35;;;;;;;3.93;3.20;;;9.20;60.90;;;;;;5094129;28;20389;-74
2023/12/31 02:51:01;;;;;;;5.00;3.10;;;9.20;60.60;;;;;;5093155;28;20887;-74
2023/12/31 02:53:26;;;;;;;8.70;3.83;;;9.20;60.60;;;;;;5092852;28;20465;-74
2023/12/31 02:55:52;;;;;;;8.43;3.67;;;9.20;61.50;;;;;;5093243;28;20373;-76
2023/12/31 02:58:17;;;;;;;6.18;3.50;;;9.30;60.20;;;;;;5092593;28;20382;-74
2023/12/31 03:00:43;;;;;;;4.18;3.63;;;9.30;60.60;;;;;;5092248;28;20406;-76
2023/12/31 03:03:09;;;;;;;4.60;3.70;;;9.30;62.20;;;;;;5092955;28;20389;-74
2023/12/31 03:05:34;;;;;;;4.70;3.42;;;9.30;60.50;;;;;;5093355;28;20821;-77
2023/12/31 03:08:00;;;;;;;6.50;4.63;;;9.40;60.70;;;;;;5093171;28;20874;-74
2023/12/31 03:10:26;;;;;;;5.20;3.50;;;9.40;59.70;;;;;;5093010;28;20432;-74
2023/12/31 03:12:52;;;;;;;4.28;3.50;;;9.30;60.70;;;;;;5092583;28;20890;-73
2023/12/31 03:15:21;;;;;;;4.40;3.30;;;9.40;60.00;;;;;;5074561;28;20447;-75
2023/12/31 03:17:47;;;;;;;6.97;3.80;;;9.40;61.80;;;;;;5092754;28;20414;-75
2023/12/31 03:20:12;;;;;;;5.70;4.28;;;9.40;61.60;;;;;;5093432;28;20429;-77
2023/12/31 03:22:38;;;;;;;7.28;3.55;;;9.30;60.90;;;;;;5093011;28;20854;-73
2023/12/31 03:25:04;;;;;;;7.17;3.67;;;9.40;61.00;;;;;;5093713;28;20378;-76
2023/12/31 03:27:30;;;;;;;3.72;3.20;;;9.40;60.50;;;;;;5093436;28;20418;-74
2023/12/31 03:29:56;;;;;;;4.40;3.03;;;9.30;59.50;;;;;;5076648;28;20394;-75
2023/12/31 03:32:21;;;;;;;5.67;3.70;;;9.30;59.60;;;;;;5092613;28;20408;-75
2023/12/31 03:34:47;;;;;;;4.70;3.23;;;9.40;60.70;;;;;;5092445;28;20378;-75
2023/12/31 03:37:12;;;;;;;4.07;3.15;;;9.40;60.30;;;;;;5092615;28;20417;-73
2023/12/31 03:39:38;;;;;;;5.22;4.00;;;9.40;61.10;;;;;;5092725;28;20381;-76
2023/12/31 03:42:03;;;;;;;3.72;3.13;;;9.30;61.30;;;;;;5093594;28;20401;-74
2023/12/31 03:44:29;;;;;;;4.15;3.30;;;9.30;61.70;;;;;;5093682;28;20492;-75
2023/12/31 03:46:54;;;;;;;6.78;3.80;;;9.40;59.40;;;;;;5094006;28;20469;-76
2023/12/31 03:49:20;;;;;;;6.47;3.90;;;9.50;59.20;;;;;;5093626;28;20477;-75
2023/12/31 03:51:45;;;;;;;7.70;3.70;;;9.40;59.20;;;;;;5092574;28;20389;-76
2023/12/31 03:54:11;;;;;;;6.70;4.23;;;9.40;59.00;;;;;;5093216;28;20390;-76
2023/12/31 03:56:37;;;;;;;6.60;3.60;;;9.60;58.20;;;;;;5092867;28;20378;-75
2023/12/31 03:59:02;;;;;;;4.03;3.60;;;9.50;58.00;;;;;;5093310;28;20381;-75
2023/12/31 04:01:28;;;;;;;5.07;3.42;;;9.60;58.50;;;;;;5093023;28;20394;-74
2023/12/31 04:03:53;;;;;;;5.15;3.17;;;9.60;57.10;;;;;;5092304;28;20461;-76
2023/12/31 04:06:19;;;;;;;6.80;3.90;;;9.70;57.20;;;;;;5091892;28;20836;-74
2023/12/31 04:08:46;;;;;;;6.90;3.72;;;9.80;57.90;;;;;;5091874;28;20378;-74
2023/12/31 04:11:13;;;;;;;7.20;4.00;;;9.70;57.00;;;;;;5091398;28;20386;-74
2023/12/31 04:13:41;;;;;;;4.60;3.58;;;9.70;56.40;;;;;;5091677;28;20393;-73
2023/12/31 04:16:08;;;;;;;7.13;4.10;;;9.80;56.30;;;;;;5091701;28;20379;-74
2023/12/31 04:18:34;;;;;;;3.80;3.40;;;9.80;56.40;;;;;;5091250;28;20478;-76
2023/12/31 04:21:00;;;;;;;5.73;3.67;;;9.70;56.10;;;;;;5072846;28;20448;-76
2023/12/31 04:23:25;;;;;;;4.50;3.50;;;9.80;56.50;;;;;;5091427;28;20476;-74
2023/12/31 04:25:51;;;;;;;5.60;3.90;;;9.80;56.50;;;;;;5091263;28;20891;-72
2023/12/31 04:28:17;;;;;;;5.40;3.50;;;9.80;56.20;;;;;;5073250;28;20790;-75
2023/12/31 04:30:43;;;;;;;4.50;3.33;;;9.80;55.60;;;;;;5091187;28;20400;-74
2023/12/31 04:33:08;;;;;;;6.90;3.60;;;9.80;55.40;;;;;;5091442;28;20385;-75
2023/12/31 04:35:34;;;;;;;5.60;3.63;;;9.90;56.20;;;;;;5091230;28;20890;-79
2023/12/31 04:38:00;;;;;;;4.88;3.58;;;9.80;55.80;;;;;;5091838;28;20802;-73
2023/12/31 04:40:25;;;;;;;5.40;3.42;;;9.70;56.20;;;;;;5091624;28;20405;-74
2023/12/31 04:42:51;;;;;;;4.65;3.08;;;9.80;55.00;;;;;;5073232;28;20405;-74
2023/12/31 04:45:16;;;;;;;6.32;3.05;;;9.80;54.90;;;;;;5091478;28;20378;-75
2023/12/31 04:47:42;;;;;;;3.50;2.80;;;9.80;54.60;;;;;;5091192;28;20421;-76
2023/12/31 04:50:08;;;;;;;3.23;2.60;;;9.80;54.20;;;;;;5074043;28;20397;-74
2023/12/31 04:52:33;;;;;;;5.03;3.10;;;9.80;54.70;;;;;;5093611;28;20378;-73
2023/12/31 04:54:59;;;;;;;5.13;3.40;;;9.80;54.80;;;;;;5093095;28;20382;-74
2023/12/31 04:57:24;;;;;;;7.20;3.10;;;9.80;54.50;;;;;;5092380;28;20463;-75
2023/12/31 04:59:50;;;;;;;4.03;3.00;;;9.90;54.40;;;;;;5092725;28;20382;-73
2023/12/31 05:02:15;;;;;;;5.43;2.93;;;9.90;53.90;;;;;;5091501;28;20385;-74
2023/12/31 05:04:41;;;;;;;3.67;2.70;;;9.90;54.10;;;;;;5091250;28;20417;-75
2023/12/31 05:07:09;;;;;;;4.95;3.05;;;9.90;53.20;;;;;;5092465;28;20752;-74
2023/12/31 05:09:35;;;;;;;4.70;2.63;;;9.80;53.10;;;;;;5073904;28;20406;-76
2023/12/31 05:12:01;;;;;;;6.18;3.45;;;9.80;52.80;;;;;;5092344;28;20378;-78
2023/12/31 05:14:26;;;;;;;4.65;2.58;;;9.80;53.80;;;;;;5093726;28;20407;-74
2023/12/31 05:16:52;;;;;;;3.75;2.45;;;9.80;53.20;;;;;;5074848;28;20386;-75
2023/12/31 05:19:17;;;;;;;3.23;2.60;;;9.80;53.40;;;;;;5091336;28;20378;-74
2023/12/31 05:21:43;;;;;;;3.57;2.73;;;9.90;52.20;;;;;;5090852;28;20917;-75
2023/12/31 05:24:08;;;;;;;4.03;2.50;;;9.80;52.40;;;;;;5095013;28;20918;-73
2023/12/31 05:26:34;;;;;;;4.97;3.13;;;9.90;52.70;;;;;;5094885;28;20418;-74
2023/12/31 05:28:59;;;;;;;4.35;2.92;;;9.80;54.30;;;;;;5076593;28;20378;-75
2023/12/31 05:31:25;;;;;;;4.32;3.20;;;9.90;53.60;;;;;;5094687;28;20378;-73
2023/12/31 05:33:51;;;;;;;4.88;2.90;;;9.90;53.50;;;;;;5094542;28;20373;-74
2023/12/31 05:36:16;;;;;;;5.77;2.90;;;9.80;52.00;;;;;;5094311;28;20739;-74
2023/12/31 05:38:42;;;;;;;3.30;2.80;;;9.90;52.90;;;;;;5094617;28;20389;-74
2023/12/31 05:41:07;;;;;;;4.70;3.10;;;9.90;51.40;;;;;;5075617;28;20413;-75
2023/12/31 05:43:33;;;;;;;4.10;2.80;;;10.00;51.80;;;;;;5076372;28;20469;-73
2023/12/31 05:46:00;;;;;;;3.90;2.80;;;9.90;51.70;;;;;;5093845;28;20385;-74
2023/12/31 05:48:26;;;;;;;3.90;2.63;;;9.90;51.20;;;;;;5094220;28;20378;-75
2023/12/31 05:50:52;;;;;;;4.93;2.60;;;10.00;51.60;;;;;;5095469;28;20454;-75
2023/12/31 05:53:17;;;;;;;4.95;2.70;;;10.00;50.80;;;;;;5094209;28;20382;-74
2023/12/31 05:55:44;;;;;;;3.53;2.65;;;9.90;51.10;;;;;;5094218;28;20374;-74
2023/12/31 05:58:09;;;;;;;4.17;2.90;;;9.90;51.20;;;;;;5093940;28;20447;-74
2023/12/31 06:00:35;;;;;;;3.20;2.40;;;10.00;50.90;;;;;;5093915;28;20402;-74
2023/12/31 06:03:00;;;;;;;3.57;2.60;;;9.90;51.10;;;;;;5093879;28;20815;-74
2023/12/31 06:05:26;;;;;;;4.80;3.03;;;9.90;50.40;;;;;;5075597;28;20791;-76
2023/12/31 06:07:51;;;;;;;4.30;2.50;;;9.90;51.00;;;;;;5093744;28;20382;-76
2023/12/31 06:10:17;;;;;;;3.00;2.70;;;10.00;51.10;;;;;;5093756;28;20745;-73
2023/12/31 06:12:42;;;;;;;3.97;2.42;;;9.90;51.00;;;;;;5093617;28;20435;-74
2023/12/31 06:15:09;;;;;;;4.50;3.10;;;9.90;50.20;;;;;;5093496;28;20468;-75
2023/12/31 06:17:35;;;;;;;5.70;3.00;;;10.00;50.80;;;;;;5093619;28;20563;-74
2023/12/31 06:20:02;;;;;;;3.00;2.53;;;10.00;49.70;;;;;;5093551;28;20463;-74
2023/12/31 06:22:28;;;;;;;4.07;2.95;;;10.00;51.60;;;;;;5093840;28;20374;-74
2023/12/31 06:24:54;;;;;;;4.20;2.70;;;10.00;50.50;;;;;;5075864;28;20419;-74
2023/12/31 06:27:19;;;;;;;4.93;3.03;;;10.00;50.10;;;;;;5093280;28;20467;-73
2023/12/31 06:29:45;;;;;;;5.27;2.80;;;9.90;50.70;;;;;;5074673;28;20718;-74
2023/12/31 06:32:10;;;;;;;5.60;2.50;;;10.00;50.30;;;;;;5093009;28;20382;-74
2023/12/31 06:34:36;;;;;;;4.00;2.60;;;10.00;50.60;;;;;;5093598;28;20491;-75
2023/12/31 06:37:01;;;;;;;3.83;2.67;;;10.00;50.10;;;;;;5074791;28;20430;-75
2023/12/31 06:39:28;;;;;;;4.18;3.00;;;10.10;51.10;;;;;;5092721;28;20386;-73
2023/12/31 06:41:53;;;;;;;3.20;2.67;;;10.10;50.00;;;;;;5092741;28;20437;-74
2023/12/31 06:44:19;;;;;;;5.70;2.90;;;10.10;49.10;;;;;;5092909;28;20385;-73
2023/12/31 06:46:44;;;;;;;4.43;2.80;;;10.20;49.50;;;;;;5092992;28;20385;-75
2023/12/31 06:49:10;;;;;;;4.00;2.60;;;10.10;48.90;;;;;;5093050;28;20472;-74
2023/12/31 06:51:35;;;;;;;2.95;2.60;;;10.20;49.50;;;;;;5093059;28;20431;-73
2023/12/31 06:54:01;;;;;;;4.10;2.60;;;10.20;49.40;;;;;;5093267;28;20394;-72
2023/12/31 06:56:27;;;;;;;3.75;2.72;;;10.20;48.50;;;;;;5092674;28;20385;-76
2023/12/31 06:58:52;;;;;;;3.80;2.50;;;10.20;49.30;;;;;;5074132;28;20787;-74
2023/12/31 07:01:18;;;;;;;3.27;2.50;;;10.20;48.70;;;;;;5092168;28;20419;-75
2023/12/31 07:03:45;;;;;;;4.40;2.70;;;10.20;49.00;;;;;;5092386;28;20394;-73
2023/12/31 07:06:10;;;;;;;3.80;2.40;;;10.30;48.40;;;;;;5092651;28;20488;-76
2023/12/31 07:08:36;;;;;;;5.68;2.80;;;10.30;48.40;;;;;;5092183;28;20851;-74
2023/12/31 07:11:02;;;;;;;7.10;3.13;;;10.30;48.20;;;;;;5092038;28;20734;-73
2023/12/31 07:13:28;;;;;;;3.83;2.70;;;10.30;48.90;;;;;;5091987;28;20468;-73
2023/12/31 07:15:58;;;;;;;3.80;3.10;;;10.30;47.60;;;;;;5073923;28;20816;-74
2023/12/31 07:18:23;;;;;;;3.38;2.63;;;10.40;48.20;;;;;;5073998;28;20390;-74
2023/12/31 07:20:49;;;;;;;4.90;3.20;;;10.40;47.90;;;;;;5091752;28;20450;-75
2023/12/31 07:23:15;;;;;;;3.10;2.50;;;10.40;47.90;;;;;;5092033;28;20381;-75
2023/12/31 07:25:40;;;;;;;4.60;2.70;;;10.40;47.10;;;;;;5091739;28;20381;-74
2023/12/31 07:28:06;;;;;;;5.17;2.53;;;10.40;46.80;;;;;;5092051;28;20998;-74
2023/12/31 07:30:31;;;;;;;3.42;2.70;;;10.40;46.50;;;;;;5091358;28;20431;-74
2023/12/31 07:32:57;;;;;;;2.60;2.30;;;10.40;46.90;;;;;;5091779;28;20414;-73
2023/12/31 07:35:22;;;;;;;3.35;2.50;;;10.40;47.30;;;;;;5091483;28;20400;-73
2023/12/31 07:37:48;;;;;;;3.93;3.00;;;10.30;47.20;;;;;;5091207;28;20388;-73
2023/12/31 07:40:13;;;;;;;2.50;2.30;;;10.30;48.20;;;;;;5091124;28;20406;-72
2023/12/31 07:42:39;;;;;;;3.50;2.47;;;10.20;47.30;;;;;;5091163;28;20408;-74
2023/12/31 07:45:06;;;;;;;4.07;2.60;;;10.20;47.80;;;;;;5090759;28;20752;-71
2023/12/31 07:47:32;;;;;;;3.10;2.30;;;10.20;47.60;;;;;;5091154;28;20431;-75
2023/12/31 07:49:58;;;;;;;3.95;2.30;;;10.10;47.40;;;;;;5091347;28;20409;-73
2023/12/31 07:52:25;;;;;;;4.70;3.20;;;10.10;47.90;;;;;;5091280;28;20413;-76
2023/12/31 07:54:50;;;;;;;3.20;2.40;;;10.10;48.00;;;;;;5091312;28;20411;-74
2023/12/31 07:57:16;;;;;;;3.58;2.40;;;10.10;47.80;;;;;;5091179;28;20864;-74
2023/12/31 07:59:43;;;;;;;4.18;3.00;;;10.20;47.60;;;;;;5091198;28;20408;-73
2023/12/31 08:02:09;;;;;;;3.10;2.50;;;10.20;47.20;;;;;;5090954;28;20374;-74
2023/12/31 08:04:34;;;;;;;3.00;2.50;;;10.30;47.60;;;;;;5091203;28;20461;-75
2023/12/31 08:07:00;;;;;;;4.20;2.60;;;10.30;47.10;;;;;;5090944;28;20373;-74
2023/12/31 08:09:26;;;;;;;3.00;2.70;;;10.40;47.00;;;;;;5091139;28;20375;-74
2023/12/31 08:11:51;;;;;;;3.10;2.50;;;10.40;47.10;;;;;;5090906;28;20748;-72
2023/12/31 08:14:17;;;;;;;3.53;2.40;;;10.40;46.20;;;;;;5091024;28;20517;-74
2023/12/31 08:16:42;;;;;;;4.30;2.90;;;10.40;46.50;;;;;;5090958;28;20859;-73
2023/12/31 08:19:08;;;;;;;3.50;2.60;;;10.50;46.40;;;;;;5091181;28;20745;-76
2023/12/31 08:21:33;;;;;;;3.47;2.60;;;10.50;46.20;;;;;;5091172;28;20394;-73
2023/12/31 08:23:59;;;;;;;2.40;2.20;;;10.50;46.50;;;;;;5091504;28;20389;-73
2023/12/31 08:26:25;;;;;;;4.40;2.50;;;10.50;46.70;;;;;;5092760;28;20384;-77
2023/12/31 08:28:50;;;;;;;5.57;2.73;;;10.50;46.60;;;;;;5092512;28;20388;-72
2023/12/31 08:31:16;;;;;;;2.90;2.60;;;10.50;46.90;;;;;;5091818;28;20385;-76
2023/12/31 08:33:43;;;;;;;4.47;2.47;;;10.50;46.50;;;;;;5092477;28;20396;-74
2023/12/31 08:36:08;;;;;;;3.53;2.78;;;10.50;46.30;;;;;;5091250;28;20382;-73
2023/12/31 08:38:34;;;;;;;4.20;2.80;;;10.50;46.00;;;;;;5091184;28;20400;-76
2023/12/31 08:41:00;;;;;;;5.93;2.63;;;10.50;47.10;;;;;;5104807;22;20423;-73
2023/12/31 08:43:25;;;;;;;4.20;2.70;;;10.50;46.60;;;;;;5091499;28;21182;-72
2023/12/31 08:45:51;;;;;;;5.50;3.10;;;10.50;46.60;;;;;;5092013;28;20362;-72
2023/12/31 08:48:20;;;;;;;5.17;2.77;;;10.60;46.40;;;;;;5092093;28;20460;-71
2023/12/31 08:50:46;;;;;;;2.50;2.30;;;10.60;46.30;;;;;;5090793;28;20432;-72
2023/12/31 08:53:11;;;;;;;3.78;2.90;;;10.60;45.60;;;;;;5091336;28;20378;-72
2023/12/31 08:55:37;;;;;;;4.10;2.57;;;10.70;45.70;;;;;;5093873;28;20390;-71
2023/12/31 08:58:03;;;;;;;3.33;2.50;;;10.80;45.00;;;;;;5080375;28;20384;-73
2023/12/31 09:00:30;;;;;;;3.27;2.40;;;10.90;45.00;;;;;;5075404;28;20892;-74
2023/12/31 09:02:56;;;;;;;4.15;2.50;;;10.90;44.50;;;;;;5078016;28;20388;-72
2023/12/31 09:05:22;;;;;;;4.20;3.00;;;11.00;44.60;;;;;;5083965;28;20388;-73
2023/12/31 09:07:48;;;;;;;4.22;2.90;;;11.20;43.90;;;;;;5074860;28;20405;-73
2023/12/31 09:10:14;;;;;;;5.72;4.22;;;11.20;43.90;;;;;;5087097;28;20378;-74
2023/12/31 09:12:39;;;;;;;4.72;3.17;;;11.20;44.70;;;;;;5098843;28;20386;-75
2023/12/31 09:15:06;;;;;;;4.30;2.80;;;11.20;43.10;;;;;;5087739;28;20484;-73
2023/12/31 09:17:32;;;;;;;4.80;3.08;;;11.30;42.70;;;;;;5094908;28;20393;-76
2023/12/31 09:19:58;;;;;;;3.78;3.20;;;11.30;42.20;;;;;;5077086;28;20382;-73
2023/12/31 09:22:23;;;;;;;6.53;3.78;;;11.20;42.30;;;;;;5089867;28;20473;-72
2023/12/31 09:24:53;;;;;;;4.82;3.50;;;11.20;43.70;;;;;;5073171;28;20387;-73
2023/12/31 09:27:19;;;;;;;6.80;3.10;;;11.30;42.40;;;;;;5072087;28;20445;-72
2023/12/31 09:29:45;;;;;;;5.20;3.50;;;11.30;43.10;;;;;;5071630;28;20896;-72
2023/12/31 09:32:11;;;;;;;4.85;3.35;;;11.30;43.50;;;;;;5071623;28;20462;-73
2023/12/31 09:34:37;;;;;;;4.50;3.38;;;11.30;42.80;;;;;;5071850;28;20472;-72
2023/12/31 09:37:02;;;;;;;7.47;3.58;;;11.40;42.40;;;;;;5085576;28;20736;-73
2023/12/31 09:39:28;;;;;;;4.72;3.50;;;11.50;42.60;;;;;;5079797;28;20386;-72
2023/12/31 09:41:59;;;;;;;4.30;3.20;;;11.50;42.20;;;;;;5084970;28;20418;-72
2023/12/31 09:44:25;;;;;;;6.20;3.70;;;11.50;41.70;;;;;;5076807;28;20405;-73
2023/12/31 09:46:57;;;;;;;4.45;3.28;;;11.50;41.90;;;;;;5091223;28;20448;-73
2023/12/31 09:49:23;;;;;;;5.32;3.50;;;11.60;41.90;;;;;;5072723;28;20394;-73
2023/12/31 09:51:50;;;;;;;5.35;3.47;;;11.60;41.60;;;;;;5073303;28;20757;-72
2023/12/31 09:54:17;;;;;;;4.93;3.75;;;11.60;41.60;;;;;;5091675;28;20393;-72
2023/12/31 09:56:44;;;;;;;4.80;3.10;;;11.70;41.70;;;;;;5089788;28;20887;-73
2023/12/31 09:59:12;;;;;;;4.90;3.50;;;11.80;40.80;;;;;;5090305;28;20824;-71
2023/12/31 10:01:38;;;;;;;3.80;3.40;;;11.70;41.30;;;;;;5088500;28;20469;-73
2023/12/31 10:04:04;;;;;;;4.03;3.53;;;11.70;41.30;;;;;;5092786;28;20381;-72
2023/12/31 10:06:31;;;;;;;10.88;3.60;;;11.70;42.10;;;;;;5101827;28;20374;-73
2023/12/31 10:08:57;;;;;;;4.97;3.63;;;11.70;41.80;;;;;;5105253;28;20397;-71
2023/12/31 10:11:23;;;;;;;6.38;3.65;;;11.70;41.30;;;;;;5097536;28;20794;-73
2023/12/31 10:13:48;;;;;;;4.63;3.40;;;11.70;41.70;;;;;;5095345;28;20386;-72
2023/12/31 10:16:14;;;;;;;5.43;3.60;;;11.80;41.00;;;;;;5092713;28;20489;-72
2023/12/31 10:18:40;;;;;;;6.80;3.25;;;11.80;41.60;;;;;;5092255;28;20382;-72
2023/12/31 10:21:08;;;;;;;6.00;4.10;;;11.70;41.50;;;;;;5074149;28;20402;-72
2023/12/31 10:23:34;;;;;;;4.80;4.00;;;11.80;42.00;;;;;;5092314;28;20378;-72
2023/12/31 10:26:00;;;;;;;4.75;3.50;;;11.80;41.80;;;;;;5092642;28;20404;-72
2023/12/31 10:28:28;;;;;;;7.75;3.70;;;11.70;41.80;;;;;;5092368;28;20935;-74
2023/12/31 10:30:53;;;;;;;4.47;3.30;;;11.60;41.60;;;;;;5073866;28;20390;-73
2023/12/31 10:33:27;;;;;;;5.70;3.25;;;11.60;41.70;;;;;;5079982;28;20934;-72
2023/12/31 10:36:05;;;;;;;4.10;2.50;;;11.60;40.70;;;;;;5078928;28;20913;-74
2023/12/31 10:38:47;;;;;;;3.35;2.47;;;11.80;39.80;;;;;;5072259;28;20825;-73
2023/12/31 10:41:21;;;;;;;5.78;2.50;;;11.90;39.10;;;;;;5084164;28;20480;-73
2023/12/31 10:43:50;;;;;;;3.25;2.40;;;11.90;38.60;;;;;;5071263;28;20874;-74
2023/12/31 10:46:18;;;;;;;5.03;1.90;;;11.90;38.10;;;;;;5087081;28;20718;-74
2023/12/31 10:48:48;;;;;;;3.38;1.90;;;12.00;36.70;;;;;;5068329;28;20443;-73
2023/12/31 10:51:20;;;;;;;3.50;1.58;;;12.00;36.30;;;;;;5078546;28;20413;-73
2023/12/31 10:53:48;;;;;;;2.97;1.20;;;12.10;35.60;;;;;;5076084;28;20443;-72
2023/12/31 10:56:14;;;;;;;2.30;1.35;;;12.20;35.20;;;;;;5090619;28;20421;-73
2023/12/31 10:58:41;;;;;;;1.80;1.20;;;12.30;34.30;;;;;;5090489;28;20400;-73
2023/12/31 11:01:07;;;;;;;2.90;1.10;;;12.30;33.50;;;;;;5090362;28;20409;-74
2023/12/31 11:03:34;;;;;;;3.40;1.25;;;12.30;33.70;;;;;;5090921;28;20374;-73
2023/12/31 11:06:01;;;;;;;1.90;1.20;;;12.20;33.80;;;;;;5089136;28;20415;-73
2023/12/31 11:08:28;;;;;;;3.10;1.40;;;12.20;34.50;;;;;;5090786;28;20431;-74
2023/12/31 11:10:54;;;;;;;2.00;1.10;;;12.10;34.90;;;;;;5090549;28;20386;-72
2023/12/31 11:13:21;;;;;;;7.93;1.40;;;12.10;34.60;;;;;;5090702;28;20394;-73
2023/12/31 11:15:49;;;;;;;5.20;1.60;;;12.10;34.50;;;;;;5090536;28;20887;-73
2023/12/31 11:18:32;;;;;;;2.20;1.40;;;12.10;34.90;;;;;;5090584;28;20386;-73
2023/12/31 11:21:36;;;;;;;2.10;1.20;;;12.00;34.80;;;;;;5089219;28;20448;-73
2023/12/31 11:24:17;;;;;;;2.50;1.30;;;12.00;34.80;;;;;;5071419;28;20384;-73
2023/12/31 11:26:42;;;;;;;3.60;1.20;;;12.10;34.70;;;;;;5070204;28;20873;-74
2023/12/31 11:29:11;;;;;;;4.38;1.33;;;12.00;34.70;;;;;;5070597;28;20386;-74
2023/12/31 11:31:44;;;;;;;2.25;1.23;;;12.00;35.00;;;;;;5083474;28;20801;-73
2023/12/31 11:34:10;;;;;;;2.35;1.20;;;11.90;35.20;;;;;;5089795;28;20938;-71
2023/12/31 11:36:36;;;;;;;3.40;1.30;;;11.90;35.20;;;;;;5090106;28;20473;-74
2023/12/31 11:39:14;;;;;;;4.47;1.17;;;12.00;35.30;;;;;;5087966;28;20852;-72
2023/12/31 11:41:45;;;;;;;3.13;0.93;;;12.00;35.50;;;;;;5088201;28;20425;-73
2023/12/31 11:44:37;;;;;;;2.10;1.00;;;11.90;35.40;;;;;;5091902;28;20446;-73
2023/12/31 11:47:11;;;;;;;4.00;1.10;;;11.90;35.40;;;;;;5086896;28;20397;-73
2023/12/31 11:49:39;;;;;;;2.28;1.05;;;11.80;36.20;;;;;;5089859;28;20401;-73
2023/12/31 11:52:08;;;;;;;1.90;1.10;;;11.80;36.20;;;;;;5082448;28;20389;-72
2023/12/31 11:54:33;;;;;;;2.63;1.27;;;11.80;36.40;;;;;;5089613;28;20382;-72
2023/12/31 11:57:00;;;;;;;2.30;1.35;;;11.80;36.50;;;;;;5091610;28;20428;-71
2023/12/31 11:59:26;;;;;;;3.70;1.40;;;11.70;36.90;;;;;;5089474;28;20386;-72
2023/12/31 12:01:56;;;;;;;3.03;1.20;;;11.70;37.00;;;;;;5073412;28;20498;-72
2023/12/31 12:04:22;;;;;;;2.10;1.10;;;11.60;36.90;;;;;;5070527;28;20390;-71
2023/12/31 12:06:47;;;;;;;3.30;1.30;;;11.70;36.90;;;;;;5071409;28;20376;-73
2023/12/31 12:09:13;;;;;;;2.25;1.13;;;11.60;37.20;;;;;;5072313;28;20384;-71
2023/12/31 12:11:43;;;;;;;1.48;1.13;;;11.60;37.20;;;;;;5071312;28;20466;-72
2023/12/31 12:14:12;;;;;;;1.80;1.10;;;11.60;37.20;;;;;;5076741;28;20426;-72
2023/12/31 12:16:40;;;;;;;2.42;1.10;;;11.70;37.00;;;;;;5062942;28;20386;-73
2023/12/31 12:19:05;;;;;;;1.60;0.90;;;11.80;37.20;;;;;;5092742;28;20899;-73
2023/12/31 12:21:31;;;;;;;3.20;0.80;;;11.60;37.80;;;;;;5083075;28;20423;-72
2023/12/31 12:23:57;;;;;;;1.92;1.10;;;11.50;38.20;;;;;;5055553;28;20434;-72
2023/12/31 12:26:23;;;;;;;2.05;1.15;;;11.50;38.30;;;;;;5071405;28;20415;-72
2023/12/31 12:28:55;;;;;;;4.45;1.60;;;11.50;38.10;;;;;;5070958;28;20707;-72
2023/12/31 12:31:22;;;;;;;4.68;1.60;;;11.60;37.80;;;;;;5070994;28;20473;-72
2023/12/31 12:33:54;;;;;;;2.78;1.38;;;11.70;37.80;;;;;;5071148;28;20383;-72
2023/12/31 12:36:21;;;;;;;3.07;1.17;;;11.80;37.00;;;;;;5071095;28;20402;-73
2023/12/31 12:38:48;;;;;;;2.33;1.10;;;11.90;36.70;;;;;;5071104;28;20411;-71
2023/12/31 12:41:21;;;;;;;2.15;1.10;;;11.90;36.40;;;;;;5070751;28;20962;-72
2023/12/31 12:43:50;;;;;;;4.25;1.20;;;11.80;36.20;;;;;;5071082;28;20765;-71
2023/12/31 12:46:16;;;;;;;2.80;1.40;;;11.80;35.80;;;;;;5070689;28;20380;-72
2023/12/31 12:48:49;;;;;;;3.20;1.03;;;11.70;36.70;;;;;;5070602;28;20383;-72